Latest Weather Observations for Delamere

IDD60801

Issued at 3:31 pm CST Thursday 30 July 2015 (issued every 30 minutes, with the page automatically refreshed every 10 minutes)

About weather observations | Map of weather stations | Latest weather observations for NT | Other Formats
Station Details ID: 014949 Name: DELAMERE WEAPONS RANGE Lat: -15.74 Lon: 131.92 Height: 221.0 m
Data from the previous 72 hours. | See also: Recent months at Delamere
Date/Time
CST
Temp
°C
App
Temp
°C
Dew
Point
Rel
Hum
%
Delta-T
°C
Wind Press
QNH
hPa
Press
MSL
hPa
Rain
since 9 am
mm
Dir
 
Spd
km/h
Gust
km/h
Spd
kts
Gust
kts
30/03:30pm 30.3 27.5 6.9 23 12.7 E 11 22 6 12 1016.0 - 0.0
30/03:00pm 29.9 25.9 6.5 23 12.6 SE 17 26 9 14 1016.5 1015.8 0.0
30/02:30pm 30.2 26.6 6.8 23 12.7 E 15 26 8 14 1016.7 - 0.0
30/02:00pm 30.0 25.7 7.2 24 12.4 ENE 19 28 10 15 1017.3 - 0.0
30/01:30pm 28.8 24.6 7.4 26 11.6 E 19 28 10 15 1018.0 - 0.0
30/01:00pm 28.9 25.6 8.0 27 11.5 E 15 24 8 13 1018.5 - 0.0
30/12:30pm 28.0 24.5 8.8 30 10.6 SE 17 26 9 14 1019.2 - 0.0
30/12:00pm 27.4 23.9 8.8 31 10.2 SE 17 30 9 16 1019.8 1019.1 0.0
30/11:30am 26.5 22.8 9.4 34 9.5 ESE 19 28 10 15 1020.3 - 0.0
30/11:00am 25.5 22.8 10.5 39 8.4 ESE 15 20 8 11 1020.6 - 0.0
30/10:30am 24.8 21.6 11.4 43 7.6 ESE 19 26 10 14 1020.8 - 0.0
30/10:00am 23.5 20.0 10.2 43 7.4 ESE 19 24 10 13 1020.8 - 0.0
30/09:30am 22.4 19.0 7.8 39 7.7 ESE 15 22 8 12 1020.6 - 0.0
30/09:00am 21.3 18.0 6.4 38 7.6 ESE 13 17 7 9 1020.3 1019.6 0.0
30/08:30am 20.0 16.5 5.3 38 7.3 ESE 13 19 7 10 1020.0 - 0.0
30/08:00am 18.7 15.5 5.2 41 6.6 ESE 11 13 6 7 1019.5 - 0.0
30/07:30am 17.7 14.5 5.3 44 6.0 SE 11 15 6 8 1019.2 - 0.0
30/07:00am 17.5 14.5 5.8 46 5.8 SE 11 13 6 7 1018.7 - 0.0
30/06:30am 17.4 14.5 6.6 49 5.4 SE 11 15 6 8 1018.5 - 0.0
30/06:00am 17.1 14.3 6.9 51 5.1 SE 11 15 6 8 1018.3 1017.7 0.0
30/05:30am 16.7 14.1 5.9 49 5.3 SE 9 11 5 6 1018.1 - 0.0
30/05:00am 16.9 14.6 5.8 48 5.4 ESE 7 9 4 5 1018.1 - 0.0
30/04:30am 17.4 15.1 5.7 46 5.7 ESE 7 9 4 5 1018.1 - 0.0
30/04:00am 18.0 15.7 5.9 45 6.0 ESE 7 11 4 6 1018.1 - 0.0
30/03:30am 18.6 15.9 5.8 43 6.4 ESE 9 11 5 6 1018.2 - 0.0
30/03:00am 19.4 16.4 5.8 41 6.8 ESE 11 13 6 7 1018.3 1017.7 0.0
30/02:30am 19.7 16.6 5.7 40 7.0 ESE 11 15 6 8 1018.4 - 0.0
30/02:00am 20.0 16.9 5.6 39 7.2 ESE 11 15 6 8 1018.6 - 0.0
30/01:30am 20.6 15.8 5.4 37 7.6 ENE 20 30 11 16 1019.1 - 0.0
30/01:00am 21.2 17.7 5.5 36 7.9 SE 13 20 7 11 1018.6 - 0.0
30/12:30am 21.4 18.0 6.1 37 7.8 SE 13 17 7 9 1018.7 - 0.0
30/12:00am 21.3 18.6 7.2 40 7.3 SSE 11 15 6 8 1018.7 1018.1 0.0
 
Date/Time
CST
Temp
°C
App
Temp
°C
Dew
Point
Rel
Hum
%
Delta-T
°C
Wind Press
QNH
hPa
Press
MSL
hPa
Rain
since 9 am
mm
Dir
 
Spd
km/h
Gust
km/h
Spd
kts
Gust
kts
29/11:30pm 21.3 18.9 6.8 39 7.5 SSE 9 11 5 6 1018.7 - 0.0
29/11:00pm 21.7 19.3 6.8 38 7.7 SSE 9 13 5 7 1018.8 - 0.0
29/10:30pm 22.2 19.7 6.4 36 8.1 SSE 9 13 5 7 1018.8 - 0.0
29/10:00pm 22.9 20.0 6.6 35 8.4 SSE 11 15 6 8 1018.8 - 0.0
29/09:30pm 23.3 20.4 6.6 34 8.7 SSE 11 15 6 8 1018.7 - 0.0
29/09:00pm 24.1 21.2 6.4 32 9.2 SSE 11 15 6 8 1018.6 1018.0 0.0
29/08:30pm 24.8 21.9 6.5 31 9.6 SE 11 15 6 8 1018.5 - 0.0
29/08:00pm 24.8 21.9 6.5 31 9.6 SE 11 15 6 8 1018.2 - 0.0
29/07:30pm 25.2 22.8 6.9 31 9.7 SE 9 13 5 7 1017.8 - 0.0
29/07:00pm 25.9 23.9 7.0 30 10.0 SE 7 9 4 5 1017.4 - 0.0
29/06:30pm 27.4 25.1 7.3 28 10.8 SE 9 13 5 7 1017.1 - 0.0
29/06:00pm 28.6 25.1 7.2 26 11.6 ESE 15 20 8 11 1016.9 1016.3 0.0
29/05:30pm 29.1 25.6 7.1 25 11.9 ESE 15 24 8 13 1016.7 - 0.0
29/05:00pm 29.4 25.0 6.7 24 12.2 ESE 19 26 10 14 1016.5 - 0.0
29/04:30pm 29.4 25.4 6.7 24 12.2 ESE 17 32 9 17 1016.4 - 0.0
29/04:00pm 29.8 25.2 6.5 23 12.5 SE 20 33 11 18 1016.5 - 0.0
29/03:30pm 29.6 25.2 5.0 21 12.9 E 17 24 9 13 1016.8 - 0.0
29/03:00pm 28.8 23.9 4.3 21 12.6 ESE 19 26 10 14 1017.3 1016.7 0.0
29/02:30pm 29.1 24.3 4.6 21 12.7 ESE 19 30 10 16 1017.7 - 0.0
29/02:00pm 28.5 23.8 3.4 20 12.7 ESE 17 26 9 14 1018.0 - 0.0
29/01:30pm 28.6 23.6 3.5 20 12.7 SSE 19 33 10 18 1018.5 - 0.0
29/01:00pm 27.7 22.9 2.7 20 12.4 ESE 17 28 9 15 1019.2 - 0.0
29/12:30pm 27.0 21.7 2.1 20 12.2 SE 19 28 10 15 1019.9 - 0.0
29/12:00pm 26.4 21.2 2.3 21 11.8 ESE 19 28 10 15 1020.5 1019.8 0.0
29/11:30am 25.3 19.7 1.4 21 11.4 ESE 20 30 11 16 1020.9 - 0.0
29/11:00am 24.0 17.6 1.0 22 10.8 ESE 24 32 13 17 1021.3 - 0.0
29/10:30am 23.1 17.3 0.2 22 10.5 ESE 20 30 11 16 1021.6 - 0.0
29/10:00am 22.4 17.1 -0.3 22 10.3 SE 17 26 9 14 1021.9 - 0.0
29/09:30am 20.8 15.1 -1.1 23 9.6 ESE 19 28 10 15 1021.7 - 0.0
29/09:00am 19.6 13.5 -2.1 23 9.2 SE 20 30 11 16 1021.3 1020.7 0.0
29/08:30am 18.7 12.8 -2.3 24 8.9 SE 19 28 10 15 1021.1 - 0.0
29/08:00am 17.9 12.4 -1.9 26 8.4 ESE 17 28 9 15 1020.7 - 0.0
29/07:30am 17.3 11.8 -1.9 27 8.1 SE 17 24 9 13 1020.3 - 0.0
29/07:00am 17.1 11.7 -1.1 29 7.7 SE 17 26 9 14 1019.9 - 0.0
29/06:30am 17.4 11.7 -0.8 29 7.8 SE 19 28 10 15 1019.7 - 0.0
29/06:00am 17.6 12.4 -0.2 30 7.7 SE 17 22 9 12 1019.6 1018.9 0.0
29/05:30am 17.7 12.5 -0.1 30 7.8 SE 17 26 9 14 1019.7 - 0.0
29/05:00am 17.6 12.8 0.3 31 7.6 SE 15 20 8 11 1019.7 - 0.0
29/04:30am 17.9 13.5 0.6 31 7.7 SE 13 20 7 11 1019.6 - 0.0
29/04:00am 18.2 13.1 0.8 31 7.8 SE 17 22 9 12 1019.6 - 0.0
29/03:30am 18.5 13.8 1.1 31 7.9 SE 15 20 8 11 1019.7 - 0.0
29/03:00am 18.9 13.8 1.0 30 8.1 SE 17 22 9 12 1019.8 1019.1 0.0
29/02:30am 19.0 14.0 1.5 31 8.0 SE 17 22 9 12 1019.9 - 0.0
29/02:00am 19.4 14.1 1.9 31 8.1 SE 19 28 10 15 1020.0 - 0.0
29/01:30am 19.9 14.4 1.8 30 8.4 SE 20 30 11 16 1020.0 - 0.0
29/01:00am 20.2 14.8 2.5 31 8.3 SE 20 30 11 16 1020.1 - 0.0
29/12:30am 20.4 15.6 2.7 31 8.4 SE 17 24 9 13 1020.1 - 0.0
29/12:00am 20.3 15.6 3.1 32 8.2 SSE 17 24 9 13 1020.2 1019.5 0.0
 
Date/Time
CST
Temp
°C
App
Temp
°C
Dew
Point
Rel
Hum
%
Delta-T
°C
Wind Press
QNH
hPa
Press
MSL
hPa
Rain
since 9 am
mm
Dir
 
Spd
km/h
Gust
km/h
Spd
kts
Gust
kts
28/11:30pm 20.2 16.3 3.4 33 8.0 SSE 13 19 7 10 1020.3 - 0.0
28/11:00pm 20.6 16.8 3.8 33 8.1 SSE 13 15 7 8 1020.5 - 0.0
28/10:30pm 21.0 17.2 3.7 32 8.4 SSE 13 19 7 10 1020.6 - 0.0
28/10:00pm 21.1 17.7 3.8 32 8.4 SSE 11 17 6 9 1020.5 - 0.0
28/09:30pm 21.7 18.4 4.3 32 8.6 S 11 17 6 9 1020.5 - 0.0
28/09:00pm 22.2 18.9 4.3 31 8.8 S 11 15 6 8 1020.5 1019.8 0.0
28/08:30pm 23.0 19.7 4.5 30 9.2 SSE 11 15 6 8 1020.2 - 0.0
28/08:00pm 23.7 20.0 4.6 29 9.6 SSE 13 19 7 10 1019.9 - 0.0
28/07:30pm 24.0 20.3 4.4 28 9.8 SSE 13 17 7 9 1019.4 - 0.0
28/07:00pm 24.9 21.2 4.6 27 10.3 SSE 13 19 7 10 1018.9 - 0.0
28/06:30pm 25.8 21.4 4.9 26 10.7 SE 17 24 9 13 1018.6 - 0.0
28/06:00pm 26.8 22.5 5.1 25 11.2 SSE 17 24 9 13 1018.3 1017.7 0.0
28/05:30pm 27.2 22.4 4.9 24 11.5 SE 19 26 10 14 1018.1 - 0.0
28/05:00pm 27.9 23.1 5.5 24 11.7 SSE 20 30 11 16 1017.9 - 0.0
28/04:30pm 27.9 22.3 5.5 24 11.7 ESE 24 32 13 17 1017.8 - 0.0
28/04:00pm 28.1 23.3 5.6 24 11.8 SE 20 32 11 17 1017.8 - 0.0
28/03:30pm 28.2 22.9 5.1 23 12.0 ESE 22 33 12 18 1017.8 - 0.0
28/03:00pm 27.5 22.2 5.1 24 11.6 ESE 22 35 12 19 1018.1 1017.5 0.0
28/02:30pm 27.1 22.3 4.8 24 11.5 SE 19 30 10 16 1018.5 - 0.0
28/02:00pm 26.7 21.7 4.5 24 11.3 ESE 20 30 11 16 1018.9 - 0.0
28/01:30pm 26.2 21.1 4.1 24 11.2 SE 20 32 11 17 1019.6 - 0.0
28/01:00pm 26.2 21.2 4.6 25 11.0 ESE 20 28 11 15 1020.2 - 0.0
28/12:30pm 25.3 20.4 3.9 25 10.7 SE 19 30 10 16 1020.7 - 0.0
28/12:00pm 24.5 19.5 3.8 26 10.3 SE 19 32 10 17 1021.2 1020.6 0.0
28/11:30am 23.6 18.4 3.5 27 9.9 ESE 20 32 11 17 1021.8 - 0.0
28/11:00am 22.8 17.6 3.4 28 9.5 SE 20 28 11 15 1022.1 - 0.0
28/10:30am 21.8 16.1 3.0 29 9.0 ESE 22 33 12 18 1022.4 - 0.0
28/10:00am 20.8 14.7 2.6 30 8.6 ESE 24 37 13 20 1022.3 - 0.0
28/09:30am 20.1 13.2 2.5 31 8.3 ESE 28 37 15 20 1022.4 - 0.0
28/09:00am 19.2 12.2 2.1 32 7.9 ESE 28 43 15 23 1022.2 1021.6 0.0
28/08:30am 18.5 12.7 2.4 34 7.5 ESE 22 33 12 18 1021.9 - 0.0
28/08:00am 17.9 12.5 2.2 35 7.2 SE 20 33 11 18 1021.6 - 0.0
28/07:30am 17.5 11.7 2.3 36 7.0 SSE 22 30 12 16 1021.6 - 0.0
28/07:00am 17.7 12.2 2.1 35 7.1 SE 20 33 11 18 1021.0 - 0.0
28/06:30am 17.9 12.5 2.2 35 7.2 SE 20 30 11 16 1020.7 - 0.0
28/06:00am 18.2 12.7 2.1 34 7.4 SE 20 32 11 17 1020.5 1019.8 0.0
28/05:30am 18.6 13.2 2.4 34 7.5 SE 20 32 11 17 1020.4 - 0.0
28/05:00am 18.8 13.4 2.2 33 7.7 ESE 20 33 11 18 1020.4 - 0.0
28/04:30am 19.1 13.9 2.5 33 7.7 SE 19 28 10 15 1020.3 - 0.0
28/04:00am 19.5 14.2 2.8 33 7.9 ESE 20 32 11 17 1020.3 - 0.0
28/03:30am 19.8 14.1 2.6 32 8.1 SE 22 32 12 17 1020.2 - 0.0
28/03:00am 20.0 14.3 2.8 32 8.1 SE 22 32 12 17 1020.3 1019.6 0.0
28/02:30am 20.3 15.0 3.1 32 8.2 SE 20 35 11 19 1020.4 - 0.0
28/02:00am 20.7 15.1 3.4 32 8.3 SE 22 32 12 17 1020.5 - 0.0
28/01:30am 21.2 14.9 3.9 32 8.4 SE 26 48 14 26 1020.5 - 0.0
28/01:00am 21.5 16.4 4.1 32 8.5 SE 20 32 11 17 1020.4 - 0.0
28/12:30am 22.0 16.1 4.1 31 8.8 SE 24 35 13 19 1020.4 - 0.0
28/12:00am 22.3 16.5 4.4 31 8.8 SE 24 32 13 17 1020.4 1019.7 0.0
 
Date/Time
CST
Temp
°C
App
Temp
°C
Dew
Point
Rel
Hum
%
Delta-T
°C
Wind Press
QNH
hPa
Press
MSL
hPa
Rain
since 9 am
mm
Dir
 
Spd
km/h
Gust
km/h
Spd
kts
Gust
kts
27/11:30pm 22.6 17.6 4.6 31 9.0 SE 20 32 11 17 1020.4 - 0.0
27/11:00pm 23.0 17.8 5.4 32 8.9 SE 22 33 12 18 1020.3 - 0.0
27/10:30pm 23.6 18.9 6.0 32 9.1 SSE 20 28 11 15 1020.1 - 0.0
27/10:00pm 24.2 19.7 6.0 31 9.4 SSE 19 30 10 16 1020.1 - 0.0
27/09:30pm 25.0 19.9 6.2 30 9.8 SE 22 37 12 20 1020.0 - 0.0
27/09:00pm 25.3 20.9 6.5 30 9.8 SE 19 28 10 15 1019.8 1019.1 0.0
27/08:30pm 25.7 21.8 7.3 31 9.8 SSE 17 24 9 13 1019.6 - 0.0
27/08:00pm 25.8 23.1 7.4 31 9.8 SE 11 17 6 9 1019.2 - 0.0
27/07:30pm 26.6 24.3 7.6 30 10.2 SE 9 15 5 8 1018.7 - 0.0
27/07:00pm 27.7 24.7 7.5 28 10.9 ESE 13 20 7 11 1018.3 - 0.0
27/06:30pm 28.5 24.7 7.7 27 11.3 ESE 17 24 9 13 1017.9 - 0.0
27/06:00pm 29.4 24.6 7.3 25 12.0 ESE 22 33 12 18 1017.6 1017.0 0.0
27/05:30pm 30.2 25.4 7.4 24 12.5 ESE 22 35 12 19 1017.2 - 0.0
27/05:00pm 30.5 25.8 7.7 24 12.6 ESE 22 37 12 20 1016.9 - 0.0
27/04:30pm 30.9 26.7 7.4 23 12.9 E 19 26 10 14 1016.9 - 0.0
27/04:00pm 31.4 26.7 7.8 23 13.1 E 22 35 12 19 1017.0 - 0.0

Other Formats:

Comma delimited format used in spreadsheet applications
http://www.bom.gov.au/fwo/IDD60801/IDD60801.94225.axf

JavaScript Object Notation format (JSON) in row-major order
http://www.bom.gov.au/fwo/IDD60801/IDD60801.94225.json